createdAt,value
2022-12-11T00:02:23.899Z,20.07
2022-12-11T00:04:51.710Z,20.60
2022-12-11T00:07:19.737Z,20.67
2022-12-11T00:09:47.577Z,20.17
2022-12-11T00:12:15.315Z,17.87
2022-12-11T00:14:43.128Z,18.93
2022-12-11T00:17:11.210Z,18.03
2022-12-11T00:19:40.673Z,16.40
2022-12-11T00:22:09.163Z,18.53
2022-12-11T00:24:37.117Z,18.00
2022-12-11T00:27:05.322Z,18.30
2022-12-11T00:29:33.219Z,18.47
2022-12-11T00:32:04.386Z,17.60
2022-12-11T00:34:32.384Z,18.37
2022-12-11T00:37:01.798Z,17.80
2022-12-11T00:39:29.761Z,18.40
2022-12-11T00:41:58.396Z,19.30
2022-12-11T00:44:26.405Z,19.47
2022-12-11T00:46:54.350Z,19.73
2022-12-11T00:49:22.162Z,21.07
2022-12-11T00:51:50.122Z,19.17
2022-12-11T00:54:19.376Z,20.13
2022-12-11T00:56:47.699Z,21.20
2022-12-11T00:59:15.537Z,19.97
2022-12-11T01:01:43.510Z,21.60
2022-12-11T01:04:11.393Z,21.20
2022-12-11T01:06:39.296Z,23.93
2022-12-11T01:09:24.599Z,22.37
2022-12-11T01:11:53.915Z,23.67
2022-12-11T01:14:21.720Z,24.70
2022-12-11T01:16:49.673Z,23.13
2022-12-11T01:19:17.491Z,23.30
2022-12-11T01:21:45.299Z,25.83
2022-12-11T01:24:13.157Z,24.93
2022-12-11T01:26:40.963Z,23.60
2022-12-11T01:29:10.170Z,26.10
2022-12-11T01:31:38.358Z,23.73
2022-12-11T01:34:06.203Z,26.27
2022-12-11T01:36:33.960Z,27.13
2022-12-11T01:39:01.661Z,26.03
2022-12-11T01:41:29.396Z,27.67
2022-12-11T01:43:58.540Z,25.63
2022-12-11T01:46:27.998Z,27.20
2022-12-11T01:48:55.869Z,28.00
2022-12-11T01:51:24.120Z,27.83
2022-12-11T01:53:52.880Z,26.33
2022-12-11T01:56:20.747Z,29.80
2022-12-11T01:58:51.517Z,28.67
2022-12-11T02:01:21.860Z,28.03
2022-12-11T02:03:51.183Z,29.03
2022-12-11T02:06:32.973Z,28.70
2022-12-11T02:09:00.799Z,29.50
2022-12-11T02:11:30.772Z,28.27
2022-12-11T02:14:01.479Z,28.50
2022-12-11T02:16:31.654Z,29.73
2022-12-11T02:19:03.364Z,27.93
2022-12-11T02:21:34.235Z,26.63
2022-12-11T02:24:08.229Z,28.97
2022-12-11T02:27:06.375Z,28.10
2022-12-11T02:29:37.141Z,29.07
2022-12-11T02:32:06.254Z,25.30
2022-12-11T02:34:36.255Z,24.50
2022-12-11T02:37:05.703Z,24.73
2022-12-11T02:39:33.516Z,22.77
2022-12-11T02:42:01.420Z,23.30
2022-12-11T02:44:30.775Z,24.40
2022-12-11T02:47:00.476Z,25.00
2022-12-11T02:49:28.419Z,23.67
2022-12-11T02:51:56.243Z,23.83
2022-12-11T02:54:26.466Z,23.87
2022-12-11T02:56:58.012Z,23.40
2022-12-11T02:59:27.627Z,24.30
2022-12-11T03:01:55.455Z,23.30
2022-12-11T03:04:25.380Z,23.10
2022-12-11T03:06:55.800Z,21.80
2022-12-11T03:09:23.812Z,24.20
2022-12-11T03:11:51.671Z,23.70
2022-12-11T03:14:19.499Z,25.00
2022-12-11T03:16:50.365Z,25.77
2022-12-11T03:19:20.457Z,27.23
2022-12-11T03:21:52.558Z,27.17
2022-12-11T03:24:21.921Z,25.63
2022-12-11T03:26:56.514Z,25.97
2022-12-11T03:29:25.941Z,27.17
2022-12-11T03:31:56.699Z,26.27
2022-12-11T03:34:26.064Z,29.47
2022-12-11T03:36:55.461Z,27.47
2022-12-11T03:39:24.883Z,25.87
2022-12-11T03:41:52.681Z,25.67
2022-12-11T03:44:20.848Z,25.30
2022-12-11T03:46:48.683Z,24.87
2022-12-11T03:49:18.475Z,24.07
2022-12-11T03:51:46.894Z,25.23
2022-12-11T03:54:16.505Z,23.97
2022-12-11T03:56:44.451Z,24.33
2022-12-11T03:59:12.317Z,23.70
2022-12-11T04:01:40.173Z,22.53
2022-12-11T04:04:08.093Z,24.77
2022-12-11T04:06:35.897Z,22.50
2022-12-11T04:09:03.796Z,25.27
2022-12-11T04:11:35.923Z,23.33
2022-12-11T04:14:21.985Z,23.97
2022-12-11T04:16:49.773Z,22.90
2022-12-11T04:19:35.074Z,24.17
2022-12-11T04:22:20.136Z,20.97
2022-12-11T04:24:49.083Z,20.13
2022-12-11T04:27:38.350Z,18.83
2022-12-11T04:30:07.063Z,18.67
2022-12-11T04:32:34.906Z,19.13
2022-12-11T04:35:02.844Z,18.00
2022-12-11T04:37:30.767Z,18.97
2022-12-11T04:39:58.654Z,19.07
2022-12-11T04:42:27.904Z,19.67
2022-12-11T04:44:55.838Z,19.63
2022-12-11T04:47:23.728Z,19.37
2022-12-11T04:49:51.760Z,17.10
2022-12-11T04:52:19.743Z,19.13
2022-12-11T04:54:47.683Z,18.33
2022-12-11T04:57:15.494Z,13.67
2022-12-11T04:59:44.795Z,14.03
2022-12-11T05:02:12.557Z,15.57
2022-12-11T05:04:40.429Z,17.43
2022-12-11T05:07:09.283Z,17.27
2022-12-11T05:09:37.203Z,16.87
2022-12-11T05:12:05.050Z,16.70
2022-12-11T05:14:33.039Z,16.97
2022-12-11T05:17:04.848Z,17.97
2022-12-11T05:19:32.777Z,17.70
2022-12-11T05:22:00.585Z,19.00
2022-12-11T05:24:28.441Z,18.53
2022-12-11T05:26:56.213Z,16.13
2022-12-11T05:29:24.295Z,17.60
2022-12-11T05:31:52.178Z,16.87
2022-12-11T05:34:21.410Z,15.37
2022-12-11T05:36:49.272Z,17.10
2022-12-11T05:39:17.083Z,19.20
2022-12-11T05:41:44.877Z,17.83
2022-12-11T05:44:13.144Z,19.20
2022-12-11T05:46:41.144Z,20.03
2022-12-11T05:49:09.087Z,20.70
2022-12-11T05:51:39.595Z,19.37
2022-12-11T05:54:07.506Z,18.50
2022-12-11T05:56:35.666Z,18.33
2022-12-11T05:59:03.786Z,18.40
2022-12-11T06:03:59.329Z,20.87
2022-12-11T06:06:27.262Z,19.07
2022-12-11T06:08:57.630Z,19.83
2022-12-11T06:11:25.626Z,18.97
2022-12-11T06:13:53.557Z,18.37
2022-12-11T06:16:21.301Z,17.37
2022-12-11T06:18:49.074Z,17.17
2022-12-11T06:21:18.248Z,15.23
2022-12-11T06:23:47.145Z,14.80
2022-12-11T06:26:16.287Z,13.27
2022-12-11T06:28:44.016Z,15.53
2022-12-11T06:31:11.782Z,14.53
2022-12-11T06:33:39.649Z,17.07
2022-12-11T06:36:08.714Z,17.70
2022-12-11T06:38:36.492Z,19.03
2022-12-11T06:41:05.672Z,18.07
2022-12-11T06:43:34.972Z,18.97
2022-12-11T06:46:04.835Z,18.47
2022-12-11T06:48:32.794Z,21.70
2022-12-11T06:51:00.597Z,19.43
2022-12-11T06:53:28.422Z,20.20
2022-12-11T06:55:56.087Z,20.23
2022-12-11T06:58:23.855Z,18.33
2022-12-11T07:00:52.972Z,19.13
2022-12-11T07:03:20.666Z,18.87
2022-12-11T07:05:48.489Z,19.37
2022-12-11T07:08:16.343Z,20.23
2022-12-11T07:10:44.145Z,18.13
2022-12-11T07:13:11.863Z,20.23
2022-12-11T07:15:41.719Z,21.10
2022-12-11T07:18:11.010Z,20.03
2022-12-11T07:20:38.818Z,18.83
2022-12-11T07:23:06.507Z,21.00
2022-12-11T07:25:34.257Z,20.17
2022-12-11T07:28:01.911Z,20.87
2022-12-11T07:30:29.816Z,21.57
2022-12-11T07:32:57.499Z,19.97
2022-12-11T07:35:26.842Z,20.50
2022-12-11T07:37:54.468Z,22.10
2022-12-11T07:40:22.770Z,20.13
2022-12-11T07:42:50.426Z,19.37
2022-12-11T07:45:18.463Z,21.90
2022-12-11T07:47:46.204Z,19.67
2022-12-11T07:50:13.936Z,20.27
2022-12-11T07:52:43.030Z,19.13
2022-12-11T07:55:11.500Z,20.43
2022-12-11T07:57:39.396Z,19.20
2022-12-11T08:00:08.693Z,17.87
2022-12-11T08:02:37.558Z,20.10
2022-12-11T08:05:06.021Z,18.80
2022-12-11T08:07:35.554Z,19.20
2022-12-11T08:10:04.852Z,20.50
2022-12-11T08:12:33.130Z,18.33
2022-12-11T08:15:00.835Z,19.27
2022-12-11T08:17:31.791Z,18.77
2022-12-11T08:20:01.701Z,17.37
2022-12-11T08:22:29.639Z,17.37
2022-12-11T08:24:57.295Z,18.53
2022-12-11T08:27:26.812Z,18.13
2022-12-11T08:29:54.492Z,18.07
2022-12-11T08:32:22.628Z,17.87
2022-12-11T08:34:52.208Z,17.70
2022-12-11T08:37:19.862Z,18.87
2022-12-11T08:39:48.073Z,18.50
2022-12-11T08:42:15.821Z,18.77
2022-12-11T08:44:45.955Z,18.07
2022-12-11T08:47:15.348Z,17.53
2022-12-11T08:49:43.109Z,18.73
2022-12-11T08:52:10.994Z,18.03
2022-12-11T08:54:38.777Z,20.20
2022-12-11T08:57:06.573Z,19.30
2022-12-11T08:59:34.615Z,18.63
2022-12-11T09:02:03.783Z,19.67
2022-12-11T09:04:31.449Z,20.23
2022-12-11T09:06:59.278Z,18.53
2022-12-11T09:09:27.012Z,18.90
2022-12-11T09:11:55.318Z,18.37
2022-12-11T09:14:22.963Z,19.20
2022-12-11T09:16:50.815Z,21.20
2022-12-11T09:19:19.838Z,18.37
2022-12-11T09:21:47.697Z,19.43
2022-12-11T09:24:15.700Z,19.70
2022-12-11T09:26:44.514Z,18.57
2022-12-11T09:29:12.190Z,17.40
2022-12-11T09:31:40.116Z,19.10
2022-12-11T09:34:08.924Z,19.73
2022-12-11T09:36:39.179Z,19.63
2022-12-11T09:39:08.575Z,18.80
2022-12-11T09:41:38.912Z,19.53
2022-12-11T09:44:39.753Z,19.80
2022-12-11T09:47:17.363Z,19.53
2022-12-11T09:49:45.144Z,20.53
2022-12-11T09:52:16.260Z,19.73
2022-12-11T09:54:47.307Z,20.13
2022-12-11T09:57:20.591Z,19.70
2022-12-11T10:00:04.268Z,19.60
2022-12-11T10:02:39.512Z,19.27
2022-12-11T10:05:12.189Z,18.93
2022-12-11T10:07:45.341Z,19.53
2022-12-11T10:10:15.890Z,20.30
2022-12-11T10:13:03.526Z,19.63
2022-12-11T10:15:36.822Z,19.73
2022-12-11T10:18:12.755Z,20.83
2022-12-11T10:20:41.287Z,19.47
2022-12-11T10:23:26.747Z,19.97
2022-12-11T10:25:58.509Z,20.20
2022-12-11T10:28:31.212Z,39.83
2022-12-11T10:31:03.880Z,21.50
2022-12-11T10:33:34.963Z,18.93
2022-12-11T10:36:02.738Z,21.73
2022-12-11T10:38:45.211Z,19.93
2022-12-11T10:41:13.935Z,19.80
2022-12-11T10:43:43.078Z,19.17
2022-12-11T10:46:19.222Z,20.00
2022-12-11T10:48:47.921Z,19.53
2022-12-11T10:51:16.744Z,19.30
2022-12-11T10:53:54.373Z,17.10
2022-12-11T10:56:28.740Z,19.53
2022-12-11T10:58:58.787Z,20.20
2022-12-11T11:01:29.572Z,20.43
2022-12-11T11:03:59.992Z,20.57
2022-12-11T11:06:27.906Z,19.77
2022-12-11T11:09:02.869Z,21.60
2022-12-11T11:11:35.266Z,20.10
2022-12-11T11:14:18.224Z,19.40
2022-12-11T11:16:49.001Z,19.53
2022-12-11T11:19:22.210Z,19.30
2022-12-11T11:21:51.833Z,19.70
2022-12-11T11:24:31.802Z,19.20
2022-12-11T11:27:14.970Z,19.13
2022-12-11T11:29:50.257Z,19.30
2022-12-11T11:32:23.810Z,19.57
2022-12-11T11:34:51.708Z,18.03
2022-12-11T11:37:28.602Z,18.03
2022-12-11T11:40:04.273Z,18.60
2022-12-11T11:42:38.877Z,15.97
2022-12-11T11:45:08.367Z,16.17
2022-12-11T11:47:40.912Z,17.83
2022-12-11T11:50:13.207Z,18.70
2022-12-11T11:52:48.695Z,17.97
2022-12-11T11:55:22.657Z,16.17
2022-12-11T11:58:02.402Z,17.30
2022-12-11T12:00:34.283Z,17.40
2022-12-11T12:03:04.336Z,16.47
2022-12-11T12:05:37.782Z,18.53
2022-12-11T12:08:09.231Z,16.03
2022-12-11T12:10:41.912Z,15.60
2022-12-11T12:13:49.248Z,17.30
2022-12-11T12:16:51.620Z,18.93
2022-12-11T12:19:15.355Z,16.23
2022-12-11T12:21:49.473Z,17.53
2022-12-11T12:24:22.717Z,16.37
2022-12-11T12:26:57.940Z,16.07
2022-12-11T12:29:33.633Z,14.93
2022-12-11T12:32:06.746Z,15.77
2022-12-11T12:34:43.370Z,13.80
2022-12-11T12:37:14.298Z,21.13
2022-12-11T12:39:48.566Z,18.73
2022-12-11T12:42:25.813Z,19.27
2022-12-11T12:44:59.168Z,16.00
2022-12-11T12:47:27.839Z,14.07
2022-12-11T12:50:00.732Z,15.80
2022-12-11T12:52:31.504Z,15.90
2022-12-11T12:55:15.974Z,15.80
2022-12-11T12:57:50.161Z,15.57
2022-12-11T13:00:34.672Z,18.20
2022-12-11T13:03:03.896Z,16.47
2022-12-11T13:05:35.128Z,16.50
2022-12-11T13:08:04.799Z,16.97
2022-12-11T13:10:42.871Z,14.87
2022-12-11T13:13:33.247Z,16.67
2022-12-11T13:16:25.589Z,15.30
2022-12-11T13:18:53.515Z,15.10
2022-12-11T13:21:20.540Z,15.40
2022-12-11T13:24:05.561Z,15.40
2022-12-11T13:27:12.571Z,13.63
2022-12-11T13:29:42.902Z,17.03
2022-12-11T13:32:23.521Z,14.70
2022-12-11T13:34:56.233Z,16.70
2022-12-11T13:37:27.099Z,16.20
2022-12-11T13:39:57.856Z,15.33
2022-12-11T13:42:29.298Z,16.40
2022-12-11T13:44:59.546Z,15.87
2022-12-11T13:47:37.233Z,15.10
2022-12-11T13:50:14.010Z,15.43
2022-12-11T13:52:42.953Z,16.13
2022-12-11T13:55:18.965Z,14.63
2022-12-11T13:57:47.376Z,15.07
2022-12-11T14:00:24.516Z,14.27
2022-12-11T14:02:52.624Z,51.43
2022-12-11T14:05:20.726Z,16.63
2022-12-11T14:07:50.322Z,17.83
2022-12-11T14:10:19.641Z,15.63
2022-12-11T14:12:51.554Z,16.87
2022-12-11T14:15:24.022Z,18.80
2022-12-11T14:17:52.309Z,17.53
2022-12-11T14:20:22.364Z,17.47
2022-12-11T14:22:51.309Z,17.63
2022-12-11T14:25:23.274Z,17.97
2022-12-11T14:27:52.135Z,18.77
2022-12-11T14:30:28.713Z,18.90
2022-12-11T14:32:58.678Z,20.07
2022-12-11T14:35:35.574Z,18.43
2022-12-11T14:38:09.244Z,50.60
2022-12-11T14:40:39.494Z,17.57
2022-12-11T14:43:09.786Z,18.37
2022-12-11T14:45:40.409Z,16.70
2022-12-11T14:48:10.230Z,18.20
2022-12-11T14:50:43.732Z,17.93
2022-12-11T14:53:15.628Z,17.97
2022-12-11T14:55:43.723Z,18.57
2022-12-11T14:58:20.997Z,17.57
2022-12-11T15:00:59.730Z,18.50
2022-12-11T15:03:32.401Z,18.23
2022-12-11T15:06:01.382Z,16.37
2022-12-11T15:08:33.357Z,15.17
2022-12-11T15:11:06.433Z,15.87
2022-12-11T15:13:41.942Z,15.80
2022-12-11T15:16:18.918Z,13.57
2022-12-11T15:18:49.599Z,14.07
2022-12-11T15:21:18.035Z,14.37
2022-12-11T15:23:53.717Z,15.27
2022-12-11T15:26:22.203Z,15.40
2022-12-11T15:29:00.515Z,14.70
2022-12-11T15:31:36.978Z,15.37
2022-12-11T15:34:05.256Z,13.30
2022-12-11T15:36:34.852Z,13.53
2022-12-11T15:39:03.224Z,14.43
2022-12-11T15:41:36.794Z,14.10
2022-12-11T15:44:08.156Z,14.50
2022-12-11T15:46:38.672Z,15.10
2022-12-11T15:49:11.069Z,14.93
2022-12-11T15:51:43.073Z,15.70
2022-12-11T15:54:12.076Z,16.33
2022-12-11T15:56:40.618Z,15.77
2022-12-11T15:59:09.020Z,14.17
2022-12-11T16:01:39.298Z,14.30
2022-12-11T16:04:11.018Z,15.40
2022-12-11T16:06:45.636Z,14.83
2022-12-11T16:09:22.349Z,13.80
2022-12-11T16:11:50.681Z,14.37
2022-12-11T16:22:10.089Z,14.03
2022-12-11T16:27:40.867Z,12.40
2022-12-11T16:30:11.266Z,13.53
2022-12-11T16:32:39.163Z,13.67
2022-12-11T16:35:13.064Z,16.00
2022-12-11T16:37:49.516Z,14.80
2022-12-11T16:40:17.836Z,13.53
2022-12-11T16:42:56.324Z,13.90
2022-12-11T16:45:25.423Z,13.70
2022-12-11T16:47:53.658Z,14.50
2022-12-11T16:50:22.878Z,14.40
2022-12-11T16:52:52.860Z,13.43
2022-12-11T16:55:26.931Z,14.30
2022-12-11T16:57:58.843Z,14.93
2022-12-11T17:00:27.189Z,14.87
2022-12-11T17:02:55.593Z,15.50
2022-12-11T17:05:24.976Z,15.77
2022-12-11T17:07:54.629Z,14.47
2022-12-11T17:10:45.318Z,14.87
2022-12-11T17:13:13.417Z,15.00
2022-12-11T17:15:43.033Z,13.63
2022-12-11T17:18:11.560Z,14.97
2022-12-11T17:20:41.790Z,15.43
2022-12-11T17:23:13.575Z,14.80
2022-12-11T17:25:54.211Z,23.87
2022-12-11T17:28:30.855Z,16.47
2022-12-11T17:31:01.473Z,16.60
2022-12-11T17:33:29.905Z,14.47
2022-12-11T17:36:03.043Z,15.20
2022-12-11T17:38:32.766Z,15.03
2022-12-11T17:41:00.859Z,15.33
2022-12-11T17:43:29.186Z,16.57
2022-12-11T17:45:59.498Z,15.97
2022-12-11T17:48:27.650Z,16.23
2022-12-11T17:50:56.497Z,15.50
2022-12-11T17:53:27.443Z,15.27
2022-12-11T17:55:57.478Z,17.13
2022-12-11T17:58:26.107Z,16.57
2022-12-11T18:00:55.998Z,16.33
2022-12-11T18:03:25.500Z,16.30
2022-12-11T18:05:54.557Z,15.67
2022-12-11T18:08:25.178Z,16.13
2022-12-11T18:10:55.440Z,16.97
2022-12-11T18:13:25.297Z,17.60
2022-12-11T18:16:01.560Z,16.73
2022-12-11T18:18:30.790Z,16.47
2022-12-11T18:20:58.819Z,16.97
2022-12-11T18:23:27.655Z,15.97
2022-12-11T18:25:55.620Z,16.83
2022-12-11T18:28:26.123Z,16.83
2022-12-11T18:30:54.052Z,17.20
2022-12-11T18:33:22.543Z,16.37
2022-12-11T18:35:52.720Z,16.50
2022-12-11T18:38:20.610Z,16.67
2022-12-11T18:40:48.462Z,16.73
2022-12-11T18:43:17.066Z,16.53
2022-12-11T18:45:46.829Z,17.47
2022-12-11T18:48:15.280Z,18.13
2022-12-11T18:50:47.165Z,15.20
2022-12-11T18:53:19.068Z,16.97
2022-12-11T18:55:48.378Z,14.83
2022-12-11T18:58:19.091Z,16.50
2022-12-11T19:00:48.350Z,16.47
2022-12-11T19:03:16.364Z,14.47
2022-12-11T19:05:48.553Z,14.87
2022-12-11T19:08:18.679Z,14.93
2022-12-11T19:10:48.218Z,16.33
2022-12-11T19:13:16.535Z,16.70
2022-12-11T19:15:45.433Z,17.40
2022-12-11T19:18:16.140Z,18.20
2022-12-11T19:20:49.473Z,16.77
2022-12-11T19:25:57.828Z,23.93
2022-12-11T19:28:25.685Z,19.50
2022-12-11T19:30:53.554Z,18.17
2022-12-11T19:33:23.035Z,16.20
2022-12-11T19:35:50.858Z,16.83
2022-12-11T19:38:18.787Z,17.50
2022-12-11T19:40:46.591Z,17.70
2022-12-11T19:43:14.500Z,17.67
2022-12-11T19:45:42.624Z,20.90
2022-12-11T19:48:10.695Z,17.53
2022-12-11T19:50:39.911Z,17.20
2022-12-11T19:53:07.822Z,16.53
2022-12-11T19:55:35.715Z,14.60
2022-12-11T19:58:03.853Z,16.67
2022-12-11T20:00:31.706Z,16.97
2022-12-11T20:02:59.728Z,16.53
2022-12-11T20:05:27.630Z,17.07
2022-12-11T20:08:14.319Z,16.73
2022-12-11T20:10:46.202Z,15.73
2022-12-11T20:13:14.188Z,17.83
2022-12-11T20:15:42.106Z,17.93
2022-12-11T20:18:15.389Z,16.70
2022-12-11T20:20:46.064Z,16.37
2022-12-11T20:23:15.146Z,15.83
2022-12-11T20:25:42.971Z,16.23
2022-12-11T20:28:10.848Z,17.77
2022-12-11T20:30:38.644Z,18.60
2022-12-11T20:33:06.320Z,17.90
2022-12-11T20:35:33.995Z,17.83
2022-12-11T20:38:01.644Z,17.57
2022-12-11T20:40:30.693Z,18.17
2022-12-11T20:42:58.439Z,17.40
2022-12-11T20:45:26.333Z,18.60
2022-12-11T20:47:54.109Z,18.37
2022-12-11T20:50:21.928Z,16.93
2022-12-11T20:52:49.609Z,17.43
2022-12-11T20:55:17.338Z,17.53
2022-12-11T20:57:46.460Z,20.17
2022-12-11T21:00:15.552Z,17.10
2022-12-11T21:02:43.187Z,16.83
2022-12-11T21:05:11.487Z,17.97
2022-12-11T21:07:39.360Z,18.60
2022-12-11T21:10:08.079Z,17.97
2022-12-11T21:12:35.838Z,17.00
2022-12-11T21:15:05.729Z,17.97
2022-12-11T21:17:33.392Z,18.07
2022-12-11T21:20:01.344Z,17.33
2022-12-11T21:22:29.047Z,18.90
2022-12-11T21:24:56.783Z,17.73
2022-12-11T21:27:24.736Z,17.67
2022-12-11T21:29:52.585Z,16.77
2022-12-11T21:32:21.708Z,17.07
2022-12-11T21:34:51.023Z,17.53
2022-12-11T21:37:18.716Z,17.73
2022-12-11T21:39:46.501Z,18.43
2022-12-11T21:42:14.279Z,17.70
2022-12-11T21:45:37.479Z,16.90
2022-12-11T21:47:31.165Z,16.60
2022-12-11T21:49:59.049Z,20.60
2022-12-11T21:52:26.701Z,17.77
2022-12-11T21:54:56.560Z,17.83
2022-12-11T21:57:26.487Z,17.53
2022-12-11T21:59:54.727Z,18.63
2022-12-11T22:02:22.435Z,16.73
2022-12-11T22:04:51.758Z,17.47
2022-12-11T22:07:19.479Z,18.27
2022-12-11T22:09:47.195Z,17.07
2022-12-11T22:12:18.271Z,15.90
2022-12-11T22:14:46.984Z,16.60
2022-12-11T22:17:14.676Z,17.70
2022-12-11T22:19:42.448Z,16.27
2022-12-11T22:22:11.546Z,17.07
2022-12-11T22:24:39.261Z,16.83
2022-12-11T22:27:07.368Z,17.03
2022-12-11T22:29:35.573Z,15.93
2022-12-11T22:32:03.458Z,18.07
2022-12-11T22:34:31.401Z,17.60
2022-12-11T22:36:59.249Z,17.43
2022-12-11T22:39:28.242Z,16.07
2022-12-11T22:41:56.656Z,15.80
2022-12-11T22:44:24.368Z,15.97
2022-12-11T22:46:52.113Z,17.13
2022-12-11T22:49:20.338Z,16.07
2022-12-11T22:51:48.156Z,16.17
2022-12-11T22:54:15.962Z,16.13
2022-12-11T22:56:45.289Z,16.50
2022-12-11T22:59:13.043Z,16.77
2022-12-11T23:01:40.793Z,16.17
2022-12-11T23:04:08.474Z,15.20
2022-12-11T23:06:36.177Z,16.83
2022-12-11T23:09:04.026Z,15.93
2022-12-11T23:11:34.785Z,15.00
2022-12-11T23:14:04.155Z,16.23
2022-12-11T23:16:31.843Z,16.40
2022-12-11T23:18:59.647Z,17.73
2022-12-11T23:21:27.930Z,16.23
2022-12-11T23:23:55.758Z,16.63
2022-12-11T23:26:23.510Z,15.63
2022-12-11T23:28:51.258Z,15.30
2022-12-11T23:31:20.363Z,16.13
2022-12-11T23:33:48.324Z,17.60
2022-12-11T23:36:16.050Z,16.17
2022-12-11T23:38:49.569Z,15.53
2022-12-11T23:41:20.602Z,17.30
2022-12-11T23:43:48.450Z,16.43
2022-12-11T23:46:17.102Z,16.00
2022-12-11T23:48:48.417Z,16.90
2022-12-11T23:51:17.237Z,16.57
2022-12-11T23:53:45.124Z,16.60
2022-12-11T23:56:14.677Z,16.00
2022-12-11T23:58:42.556Z,16.87
